Wellington, New Zealand
Current Conditions -  °F | °C
As of 1:00 PM on Wednesday 28 Jan 2015 (Local Time) from NZWN Reporting Station
Few Clouds Few Clouds  
Wind Chill: 21°   Ceiling: Unl
Heat Index: 21°   Visibility: 6mi
Dew Point: 16°   Wind: 15mph
Humidity: 73%   Direction: 210°SSW
Pressure: 29.91"   Gusts: NA
Location:  41.29°S, 174.78°E
Report Text: NZWN 280100Z AUTO 21013KT 9999 FEW060/// 21/16 Q1013 NOSIG
Loading
Personal Weather Stations






























Interactive Weather Map New forecast layout! Learn more

10-Day Weather Forecast

Advertisements
Track Severe Weather on mobile